Wind From: 11-12-2017 06:00 Until: 12-12-2017 06:00 warning for: Wind Level: Orange info button

Power and phone distribution networks may be disrupted for relatively long periods., Roofs and chimneys can be damaged. , Tree branches may break. , Vehicles can be deported. , Traffic may be disrupted, particularly on secondary roads in forest areas. Limit your trips. , Limit your speed in highway driving, especially if you drive a vehicle or hitch sensitive to wind. , Do not go for walks in forests or along the coast., In town, be vigilant against possible falling objects., Do not work on roofs and do not touch any electrical line fallen on the ground., Store or secure sensitive objects to wind or likely to be damaged., Always install power generators outside buildings. 


Meteo18 Weather Cam more information Meteo18 Weather Cam


Thunder radar more information blitzortung!


Rain radar more information rain snow radar


Visit our other weather sites:

Template documentation
and downloads

And another site



Weather Underground History page Text

Daily Summary for June 1, 2017 Units:  Both    English   Metric
« Previous Day
Next Day »
Daily Weekly Monthly Yearly Custom
  High: Low: Average:
Temperature: 81.7 °F /  27.6 °C 57.4 °F /  14.1 °C 69.4 °F /  20.8 °C
Dew Point: 64.2 °F /  17.9 °C 54.3 °F /  12.4 °C 59.5 °F /  15.3 °C
Humidity: 90 % 49 % 72 %
Wind Speed: 7 mph /  11.3 km/h - 1 mph /  1.6 km/h
Wind Gust: 10 mph /  16.1 km/h - -
Wind:- - ESE
Pressure: 30.2 in /  1021.9 hPa 30.1 in /  1018.5 hPa -
Precipitation: 0 in /  0.0 mm    
Historical Graphs
 
 
Tabular Data for June 1, 2017
Time Temperature Dew Point Pressure Wind Wind Speed Wind Gust Humidity Rainfall Rate (Hourly)
00:02 63.1 °F /  17.3 °C 58.3 °F /  14.6 °C 30.2 in /  1021.9 hPa NNE 1 mph /  1.6 km/h 2 mph /  3.2 km/h 84 % 0 in /  0.0 mm
00:07 63 °F /  17.2 °C 58.1 °F /  14.5 °C 30.2 in /  1021.9 hPa NNE 1 mph /  1.6 km/h 2 mph /  3.2 km/h 84 % 0 in /  0.0 mm
00:12 62.8 °F /  17.1 °C 57.9 °F /  14.4 °C 30.2 in /  1021.9 hPa Calm   2 mph /  3.2 km/h 84 % 0 in /  0.0 mm
00:17 62.8 °F /  17.1 °C 57.9 °F /  14.4 °C 30.2 in /  1021.9 hPa Calm   2 mph /  3.2 km/h 84 % 0 in /  0.0 mm
00:22 62.8 °F /  17.1 °C 57.9 °F /  14.4 °C 30.2 in /  1021.9 hPa Calm   2 mph /  3.2 km/h 84 % 0 in /  0.0 mm
00:32 62.8 °F /  17.1 °C 57.9 °F /  14.4 °C 30.2 in /  1021.9 hPa Calm   2 mph /  3.2 km/h 84 % 0 in /  0.0 mm
00:37 62.8 °F /  17.1 °C 57.9 °F /  14.4 °C 30.2 in /  1021.9 hPa Calm   2 mph /  3.2 km/h 84 % 0 in /  0.0 mm
00:42 62.8 °F /  17.1 °C 57.6 °F /  14.2 °C 30.2 in /  1021.9 hPa Calm   2 mph /  3.2 km/h 83 % 0 in /  0.0 mm
00:52 62.8 °F /  17.1 °C 57.6 °F /  14.2 °C 30.2 in /  1021.9 hPa Calm   1 mph /  1.6 km/h 83 % 0 in /  0.0 mm
00:57 62.6 °F /  17.0 °C 57.4 °F /  14.1 °C 30.2 in /  1021.9 hPa Calm   1 mph /  1.6 km/h 83 % 0 in /  0.0 mm
01:02 62.4 °F /  16.9 °C 57.2 °F /  14.0 °C 30.2 in /  1021.9 hPa Calm   1 mph /  1.6 km/h 83 % 0 in /  0.0 mm
01:12 62.4 °F /  16.9 °C 57.2 °F /  14.0 °C 30.2 in /  1021.9 hPa Calm     83 % 0 in /  0.0 mm
01:17 62.1 °F /  16.7 °C 56.8 °F /  13.8 °C 30.2 in /  1021.9 hPa Calm     83 % 0 in /  0.0 mm
01:22 62.1 °F /  16.7 °C 56.8 °F /  13.8 °C 30.2 in /  1021.9 hPa Calm   2 mph /  3.2 km/h 83 % 0 in /  0.0 mm
01:27 61.9 °F /  16.6 °C 56.7 °F /  13.7 °C 30.2 in /  1021.9 hPa Calm   2 mph /  3.2 km/h 83 % 0 in /  0.0 mm
01:32 61.9 °F /  16.6 °C 56.7 °F /  13.7 °C 30.2 in /  1021.9 hPa Calm   2 mph /  3.2 km/h 83 % 0 in /  0.0 mm
01:42 61.5 °F /  16.4 °C 56.7 °F /  13.7 °C 30.2 in /  1021.9 hPa NW 1 mph /  1.6 km/h 1 mph /  1.6 km/h 84 % 0 in /  0.0 mm
01:47 61.3 °F /  16.3 °C 56.5 °F /  13.6 °C 30.2 in /  1021.9 hPa Calm   3 mph /  4.8 km/h 84 % 0 in /  0.0 mm
01:52 61.3 °F /  16.3 °C 56.5 °F /  13.6 °C 30.2 in /  1021.9 hPa Calm   3 mph /  4.8 km/h 84 % 0 in /  0.0 mm
01:57 61.3 °F /  16.3 °C 56.5 °F /  13.6 °C 30.2 in /  1021.9 hPa Calm   3 mph /  4.8 km/h 84 % 0 in /  0.0 mm
02:02 61.2 °F /  16.2 °C 56.7 °F /  13.7 °C 30.2 in /  1021.9 hPa Calm   3 mph /  4.8 km/h 85 % 0 in /  0.0 mm
02:07 61.2 °F /  16.2 °C 56.3 °F /  13.5 °C 30.2 in /  1021.9 hPa Calm   1 mph /  1.6 km/h 84 % 0 in /  0.0 mm
02:12 60.8 °F /  16.0 °C 56.3 °F /  13.5 °C 30.2 in /  1021.9 hPa Calm   1 mph /  1.6 km/h 85 % 0 in /  0.0 mm
02:17 60.6 °F /  15.9 °C 56.5 °F /  13.6 °C 30.2 in /  1021.9 hPa Calm     86 % 0 in /  0.0 mm
02:22 60.3 °F /  15.7 °C 56.3 °F /  13.5 °C 30.2 in /  1021.9 hPa Calm     87 % 0 in /  0.0 mm
02:32 60.8 °F /  16.0 °C 56.7 °F /  13.7 °C 30.2 in /  1021.9 hPa Calm     86 % 0 in /  0.0 mm
02:42 61 °F /  16.1 °C 56.5 °F /  13.6 °C 30.2 in /  1021.6 hPa Calm     85 % 0 in /  0.0 mm
02:47 60.8 °F /  16.0 °C 56.3 °F /  13.5 °C 30.2 in /  1021.6 hPa Calm     85 % 0 in /  0.0 mm
02:52 60.6 °F /  15.9 °C 56.5 °F /  13.6 °C 30.2 in /  1021.6 hPa Calm     86 % 0 in /  0.0 mm
02:57 60.1 °F /  15.6 °C 56.1 °F /  13.4 °C 30.2 in /  1021.6 hPa Calm     87 % 0 in /  0.0 mm
03:02 60.1 °F /  15.6 °C 56.1 °F /  13.4 °C 30.2 in /  1021.6 hPa Calm     87 % 0 in /  0.0 mm
03:12 60.3 °F /  15.7 °C 56.3 °F /  13.5 °C 30.2 in /  1021.6 hPa Calm     87 % 0 in /  0.0 mm
03:17 60.1 °F /  15.6 °C 56.1 °F /  13.4 °C 30.2 in /  1021.6 hPa Calm     87 % 0 in /  0.0 mm
03:22 59.7 °F /  15.4 °C 55.8 °F /  13.2 °C 30.2 in /  1021.6 hPa Calm     87 % 0 in /  0.0 mm
03:32 59.5 °F /  15.3 °C 55.9 °F /  13.3 °C 30.2 in /  1021.2 hPa Calm   1 mph /  1.6 km/h 88 % 0 in /  0.0 mm
03:37 59.5 °F /  15.3 °C 55.9 °F /  13.3 °C 30.2 in /  1021.2 hPa Calm   1 mph /  1.6 km/h 88 % 0 in /  0.0 mm
03:42 59.4 °F /  15.2 °C 55.4 °F /  13.0 °C 30.2 in /  1021.2 hPa Calm   2 mph /  3.2 km/h 87 % 0 in /  0.0 mm
03:52 59.2 °F /  15.1 °C 55.6 °F /  13.1 °C 30.2 in /  1021.2 hPa NNE 1 mph /  1.6 km/h 2 mph /  3.2 km/h 88 % 0 in /  0.0 mm
03:57 58.8 °F /  14.9 °C 55.2 °F /  12.9 °C 30.2 in /  1021.2 hPa North 1 mph /  1.6 km/h 2 mph /  3.2 km/h 88 % 0 in /  0.0 mm
04:02 58.8 °F /  14.9 °C 55.2 °F /  12.9 °C 30.2 in /  1021.2 hPa NNE 1 mph /  1.6 km/h 3 mph /  4.8 km/h 88 % 0 in /  0.0 mm
04:12 58.8 °F /  14.9 °C 55.2 °F /  12.9 °C 30.2 in /  1021.2 hPa Calm   3 mph /  4.8 km/h 88 % 0 in /  0.0 mm
04:17 58.6 °F /  14.8 °C 55 °F /  12.8 °C 30.2 in /  1021.2 hPa Calm   3 mph /  4.8 km/h 88 % 0 in /  0.0 mm
04:22 58.5 °F /  14.7 °C 55.2 °F /  12.9 °C 30.2 in /  1021.2 hPa Calm   3 mph /  4.8 km/h 89 % 0 in /  0.0 mm
04:32 58.6 °F /  14.8 °C 55 °F /  12.8 °C 30.2 in /  1020.9 hPa North 1 mph /  1.6 km/h 2 mph /  3.2 km/h 88 % 0 in /  0.0 mm
04:37 58.6 °F /  14.8 °C 55 °F /  12.8 °C 30.2 in /  1020.9 hPa Calm   2 mph /  3.2 km/h 88 % 0 in /  0.0 mm
04:42 58.6 °F /  14.8 °C 55 °F /  12.8 °C 30.2 in /  1020.9 hPa NNE 2 mph /  3.2 km/h 2 mph /  3.2 km/h 88 % 0 in /  0.0 mm
04:47 58.6 °F /  14.8 °C 55 °F /  12.8 °C 30.2 in /  1020.9 hPa Calm   2 mph /  3.2 km/h 88 % 0 in /  0.0 mm
04:52 58.5 °F /  14.7 °C 54.9 °F /  12.7 °C 30.2 in /  1020.9 hPa Calm   2 mph /  3.2 km/h 88 % 0 in /  0.0 mm
04:57 58.3 °F /  14.6 °C 54.7 °F /  12.6 °C 30.2 in /  1020.9 hPa Calm   2 mph /  3.2 km/h 88 % 0 in /  0.0 mm
05:02 58.3 °F /  14.6 °C 55 °F /  12.8 °C 30.2 in /  1020.9 hPa Calm   2 mph /  3.2 km/h 89 % 0 in /  0.0 mm
05:07 58.3 °F /  14.6 °C 55 °F /  12.8 °C 30.2 in /  1020.9 hPa Calm     89 % 0 in /  0.0 mm
05:12 58.5 °F /  14.7 °C 55.2 °F /  12.9 °C 30.2 in /  1020.9 hPa Calm     89 % 0 in /  0.0 mm
05:17 58.1 °F /  14.5 °C 54.9 °F /  12.7 °C 30.1 in /  1020.5 hPa WNW 1 mph /  1.6 km/h 1 mph /  1.6 km/h 89 % 0 in /  0.0 mm
05:22 57.9 °F /  14.4 °C 55 °F /  12.8 °C 30.1 in /  1020.5 hPa WNW 1 mph /  1.6 km/h 1 mph /  1.6 km/h 90 % 0 in /  0.0 mm
05:27 58.3 °F /  14.6 °C 55 °F /  12.8 °C 30.1 in /  1020.5 hPa NW 1 mph /  1.6 km/h 1 mph /  1.6 km/h 89 % 0 in /  0.0 mm
05:32 58.3 °F /  14.6 °C 55 °F /  12.8 °C 30.1 in /  1020.5 hPa North 1 mph /  1.6 km/h 1 mph /  1.6 km/h 89 % 0 in /  0.0 mm
05:42 57.9 °F /  14.4 °C 54.7 °F /  12.6 °C 30.1 in /  1020.5 hPa Calm   1 mph /  1.6 km/h 89 % 0 in /  0.0 mm
05:47 57.9 °F /  14.4 °C 54.7 °F /  12.6 °C 30.1 in /  1020.5 hPa North 1 mph /  1.6 km/h 2 mph /  3.2 km/h 89 % 0 in /  0.0 mm
05:52 57.7 °F /  14.3 °C 54.5 °F /  12.5 °C 30.1 in /  1020.5 hPa Calm   2 mph /  3.2 km/h 89 % 0 in /  0.0 mm
05:57 57.7 °F /  14.3 °C 54.5 °F /  12.5 °C 30.2 in /  1020.9 hPa Calm   2 mph /  3.2 km/h 89 % 0 in /  0.0 mm
06:02 57.6 °F /  14.2 °C 54.3 °F /  12.4 °C 30.2 in /  1020.9 hPa Calm   2 mph /  3.2 km/h 89 % 0 in /  0.0 mm
06:12 57.4 °F /  14.1 °C 54.5 °F /  12.5 °C 30.2 in /  1020.9 hPa North 1 mph /  1.6 km/h 2 mph /  3.2 km/h 90 % 0 in /  0.0 mm
06:17 57.4 °F /  14.1 °C 54.5 °F /  12.5 °C 30.2 in /  1020.9 hPa Calm   2 mph /  3.2 km/h 90 % 0 in /  0.0 mm
06:22 57.6 °F /  14.2 °C 54.7 °F /  12.6 °C 30.2 in /  1020.9 hPa Calm   2 mph /  3.2 km/h 90 % 0 in /  0.0 mm
06:27 57.6 °F /  14.2 °C 54.7 °F /  12.6 °C 30.2 in /  1020.9 hPa NNW 1 mph /  1.6 km/h 2 mph /  3.2 km/h 90 % 0 in /  0.0 mm
06:32 57.7 °F /  14.3 °C 54.9 °F /  12.7 °C 30.2 in /  1020.9 hPa North 1 mph /  1.6 km/h 1 mph /  1.6 km/h 90 % 0 in /  0.0 mm
06:37 57.9 °F /  14.4 °C 55 °F /  12.8 °C 30.2 in /  1020.9 hPa Calm   1 mph /  1.6 km/h 90 % 0 in /  0.0 mm
06:42 58.1 °F /  14.5 °C 54.9 °F /  12.7 °C 30.2 in /  1020.9 hPa Calm   2 mph /  3.2 km/h 89 % 0 in /  0.0 mm
06:47 58.3 °F /  14.6 °C 55 °F /  12.8 °C 30.2 in /  1020.9 hPa North 2 mph /  3.2 km/h 2 mph /  3.2 km/h 89 % 0 in /  0.0 mm
06:52 58.3 °F /  14.6 °C 55 °F /  12.8 °C 30.2 in /  1020.9 hPa Calm   2 mph /  3.2 km/h 89 % 0 in /  0.0 mm
06:57 58.8 °F /  14.9 °C 55.6 °F /  13.1 °C 30.2 in /  1020.9 hPa Calm   2 mph /  3.2 km/h 89 % 0 in /  0.0 mm
07:02 59.4 °F /  15.2 °C 55.8 °F /  13.2 °C 30.2 in /  1020.9 hPa Calm   2 mph /  3.2 km/h 88 % 0 in /  0.0 mm
07:07 59.7 °F /  15.4 °C 55.8 °F /  13.2 °C 30.2 in /  1020.9 hPa Calm   1 mph /  1.6 km/h 87 % 0 in /  0.0 mm
07:12 60.4 °F /  15.8 °C 56.3 °F /  13.5 °C 30.2 in /  1021.2 hPa Calm   1 mph /  1.6 km/h 86 % 0 in /  0.0 mm
07:17 61 °F /  16.1 °C 56.8 °F /  13.8 °C 30.2 in /  1021.2 hPa Calm   1 mph /  1.6 km/h 86 % 0 in /  0.0 mm
07:22 61.5 °F /  16.4 °C 57 °F /  13.9 °C 30.2 in /  1021.2 hPa Calm   1 mph /  1.6 km/h 85 % 0 in /  0.0 mm
07:27 62.8 °F /  17.1 °C 57.9 °F /  14.4 °C 30.2 in /  1021.2 hPa Calm   1 mph /  1.6 km/h 84 % 0 in /  0.0 mm
07:32 63.5 °F /  17.5 °C 57.9 °F /  14.4 °C 30.2 in /  1021.2 hPa Calm   1 mph /  1.6 km/h 82 % 0 in /  0.0 mm
07:37 63.9 °F /  17.7 °C 58.3 °F /  14.6 °C 30.2 in /  1021.2 hPa Calm   1 mph /  1.6 km/h 82 % 0 in /  0.0 mm
07:42 63.7 °F /  17.6 °C 58.5 °F /  14.7 °C 30.2 in /  1021.2 hPa NNE 1 mph /  1.6 km/h 1 mph /  1.6 km/h 83 % 0 in /  0.0 mm
07:47 63.3 °F /  17.4 °C 58.5 °F /  14.7 °C 30.2 in /  1021.2 hPa North 1 mph /  1.6 km/h 1 mph /  1.6 km/h 84 % 0 in /  0.0 mm
07:52 63.1 °F /  17.3 °C 58.3 °F /  14.6 °C 30.2 in /  1021.2 hPa NNE 2 mph /  3.2 km/h 2 mph /  3.2 km/h 84 % 0 in /  0.0 mm
07:57 63.1 °F /  17.3 °C 58.3 °F /  14.6 °C 30.2 in /  1021.2 hPa NNW 1 mph /  1.6 km/h 2 mph /  3.2 km/h 84 % 0 in /  0.0 mm
08:02 63 °F /  17.2 °C 57.7 °F /  14.3 °C 30.2 in /  1021.2 hPa Calm   2 mph /  3.2 km/h 83 % 0 in /  0.0 mm
08:07 63.1 °F /  17.3 °C 57.6 °F /  14.2 °C 30.2 in /  1021.2 hPa North 1 mph /  1.6 km/h 3 mph /  4.8 km/h 82 % 0 in /  0.0 mm
08:12 63.7 °F /  17.6 °C 58.1 °F /  14.5 °C 30.2 in /  1021.2 hPa NNE 1 mph /  1.6 km/h 3 mph /  4.8 km/h 82 % 0 in /  0.0 mm
08:17 64 °F /  17.8 °C 58.1 °F /  14.5 °C 30.2 in /  1021.6 hPa NE 2 mph /  3.2 km/h 2 mph /  3.2 km/h 81 % 0 in /  0.0 mm
08:22 64.2 °F /  17.9 °C 57.9 °F /  14.4 °C 30.2 in /  1021.6 hPa ENE 1 mph /  1.6 km/h 2 mph /  3.2 km/h 80 % 0 in /  0.0 mm
08:27 64.6 °F /  18.1 °C 58.6 °F /  14.8 °C 30.2 in /  1021.6 hPa Calm   4 mph /  6.4 km/h 81 % 0 in /  0.0 mm
08:32 65.1 °F /  18.4 °C 58.8 °F /  14.9 °C 30.2 in /  1021.6 hPa ENE 2 mph /  3.2 km/h 4 mph /  6.4 km/h 80 % 0 in /  0.0 mm
08:37 65.3 °F /  18.5 °C 58.6 °F /  14.8 °C 30.2 in /  1021.6 hPa ENE 1 mph /  1.6 km/h 3 mph /  4.8 km/h 79 % 0 in /  0.0 mm
08:42 65.5 °F /  18.6 °C 58.5 °F /  14.7 °C 30.2 in /  1021.2 hPa Calm   3 mph /  4.8 km/h 78 % 0 in /  0.0 mm
08:47 66.4 °F /  19.1 °C 59.7 °F /  15.4 °C 30.2 in /  1021.6 hPa Calm   2 mph /  3.2 km/h 79 % 0 in /  0.0 mm
08:57 68.4 °F /  20.2 °C 60.4 °F /  15.8 °C 30.2 in /  1021.6 hPa Calm   1 mph /  1.6 km/h 76 % 0 in /  0.0 mm
09:02 68.7 °F /  20.4 °C 59.7 °F /  15.4 °C 30.2 in /  1021.6 hPa Calm   1 mph /  1.6 km/h 73 % 0 in /  0.0 mm
09:07 68.5 °F /  20.3 °C 60.3 °F /  15.7 °C 30.2 in /  1021.6 hPa Calm   1 mph /  1.6 km/h 75 % 0 in /  0.0 mm
09:12 68.5 °F /  20.3 °C 59.5 °F /  15.3 °C 30.2 in /  1021.6 hPa Calm   1 mph /  1.6 km/h 73 % 0 in /  0.0 mm
09:22 67.8 °F /  19.9 °C 59.5 °F /  15.3 °C 30.2 in /  1021.6 hPa ENE 2 mph /  3.2 km/h 2 mph /  3.2 km/h 75 % 0 in /  0.0 mm
09:27 68 °F /  20.0 °C 60.4 °F /  15.8 °C 30.2 in /  1021.6 hPa Calm   3 mph /  4.8 km/h 77 % 0 in /  0.0 mm
09:32 69.1 °F /  20.6 °C 60.8 °F /  16.0 °C 30.2 in /  1021.6 hPa East 1 mph /  1.6 km/h 3 mph /  4.8 km/h 75 % 0 in /  0.0 mm
09:37 69.6 °F /  20.9 °C 60.6 °F /  15.9 °C 30.2 in /  1021.6 hPa East 1 mph /  1.6 km/h 2 mph /  3.2 km/h 73 % 0 in /  0.0 mm
09:42 69.8 °F /  21.0 °C 60.4 °F /  15.8 °C 30.2 in /  1021.6 hPa East 1 mph /  1.6 km/h 2 mph /  3.2 km/h 72 % 0 in /  0.0 mm
09:47 68.7 °F /  20.4 °C 60.1 °F /  15.6 °C 30.2 in /  1021.6 hPa Calm   4 mph /  6.4 km/h 74 % 0 in /  0.0 mm
09:52 68.9 °F /  20.5 °C 60.6 °F /  15.9 °C 30.2 in /  1021.6 hPa Calm   4 mph /  6.4 km/h 75 % 0 in /  0.0 mm
09:57 69.6 °F /  20.9 °C 61.3 °F /  16.3 °C 30.2 in /  1021.6 hPa Calm   4 mph /  6.4 km/h 75 % 0 in /  0.0 mm
10:02 69.6 °F /  20.9 °C 61 °F /  16.1 °C 30.2 in /  1021.6 hPa ENE 2 mph /  3.2 km/h 4 mph /  6.4 km/h 74 % 0 in /  0.0 mm
10:07 69.3 °F /  20.7 °C 61 °F /  16.1 °C 30.2 in /  1021.6 hPa ENE 2 mph /  3.2 km/h 4 mph /  6.4 km/h 75 % 0 in /  0.0 mm
10:12 69.3 °F /  20.7 °C 61 °F /  16.1 °C 30.2 in /  1021.6 hPa East 1 mph /  1.6 km/h 4 mph /  6.4 km/h 75 % 0 in /  0.0 mm
10:17 69.6 °F /  20.9 °C 61.3 °F /  16.3 °C 30.2 in /  1021.6 hPa SE 2 mph /  3.2 km/h 4 mph /  6.4 km/h 75 % 0 in /  0.0 mm
10:22 70.2 °F /  21.2 °C 60.6 °F /  15.9 °C 30.2 in /  1021.6 hPa Calm   4 mph /  6.4 km/h 72 % 0 in /  0.0 mm
10:32 70.9 °F /  21.6 °C 61.3 °F /  16.3 °C 30.2 in /  1021.6 hPa East 2 mph /  3.2 km/h 4 mph /  6.4 km/h 72 % 0 in /  0.0 mm
10:37 70.9 °F /  21.6 °C 61.9 °F /  16.6 °C 30.2 in /  1021.6 hPa East 1 mph /  1.6 km/h 4 mph /  6.4 km/h 73 % 0 in /  0.0 mm
10:42 71.2 °F /  21.8 °C 61.3 °F /  16.3 °C 30.2 in /  1021.6 hPa Calm   4 mph /  6.4 km/h 71 % 0 in /  0.0 mm
10:47 71.6 °F /  22.0 °C 61.3 °F /  16.3 °C 30.2 in /  1021.6 hPa ENE 1 mph /  1.6 km/h 3 mph /  4.8 km/h 70 % 0 in /  0.0 mm
10:57 72.7 °F /  22.6 °C 62.2 °F /  16.8 °C 30.2 in /  1021.6 hPa Calm   4 mph /  6.4 km/h 70 % 0 in /  0.0 mm
11:02 72.7 °F /  22.6 °C 61.5 °F /  16.4 °C 30.2 in /  1021.6 hPa Calm   4 mph /  6.4 km/h 68 % 0 in /  0.0 mm
11:12 73.4 °F /  23.0 °C 62.6 °F /  17.0 °C 30.2 in /  1021.6 hPa SW 3 mph /  4.8 km/h 4 mph /  6.4 km/h 69 % 0 in /  0.0 mm
11:17 73.2 °F /  22.9 °C 62.1 °F /  16.7 °C 30.2 in /  1021.6 hPa SSE 1 mph /  1.6 km/h 4 mph /  6.4 km/h 68 % 0 in /  0.0 mm
11:22 73.8 °F /  23.2 °C 63 °F /  17.2 °C 30.2 in /  1021.6 hPa East 2 mph /  3.2 km/h 4 mph /  6.4 km/h 69 % 0 in /  0.0 mm
11:32 73.9 °F /  23.3 °C 62.8 °F /  17.1 °C 30.2 in /  1021.6 hPa NE 1 mph /  1.6 km/h 5 mph /  8.0 km/h 68 % 0 in /  0.0 mm
11:37 73.8 °F /  23.2 °C 61.3 °F /  16.3 °C 30.2 in /  1021.6 hPa ENE 3 mph /  4.8 km/h 5 mph /  8.0 km/h 65 % 0 in /  0.0 mm
11:42 72.9 °F /  22.7 °C 60.8 °F /  16.0 °C 30.2 in /  1021.6 hPa NE 2 mph /  3.2 km/h 5 mph /  8.0 km/h 66 % 0 in /  0.0 mm
11:47 72.7 °F /  22.6 °C 60.6 °F /  15.9 °C 30.2 in /  1021.6 hPa ENE 1 mph /  1.6 km/h 6 mph /  9.7 km/h 66 % 0 in /  0.0 mm
11:52 72.7 °F /  22.6 °C 61.2 °F /  16.2 °C 30.2 in /  1021.6 hPa ENE 1 mph /  1.6 km/h 6 mph /  9.7 km/h 67 % 0 in /  0.0 mm
11:57 72.7 °F /  22.6 °C 61.5 °F /  16.4 °C 30.2 in /  1021.6 hPa NE 4 mph /  6.4 km/h 6 mph /  9.7 km/h 68 % 0 in /  0.0 mm
12:02 72.7 °F /  22.6 °C 61.5 °F /  16.4 °C 30.2 in /  1021.6 hPa East 5 mph /  8.0 km/h 6 mph /  9.7 km/h 68 % 0 in /  0.0 mm
12:07 72.7 °F /  22.6 °C 61.5 °F /  16.4 °C 30.2 in /  1021.6 hPa ENE 2 mph /  3.2 km/h 6 mph /  9.7 km/h 68 % 0 in /  0.0 mm
12:12 72.5 °F /  22.5 °C 61.3 °F /  16.3 °C 30.2 in /  1021.6 hPa ENE 1 mph /  1.6 km/h 6 mph /  9.7 km/h 68 % 0 in /  0.0 mm
12:17 72.3 °F /  22.4 °C 58.6 °F /  14.8 °C 30.2 in /  1021.6 hPa NE 7 mph /  11.3 km/h 7 mph /  11.3 km/h 62 % 0 in /  0.0 mm
12:22 72.3 °F /  22.4 °C 59.5 °F /  15.3 °C 30.2 in /  1021.6 hPa East 4 mph /  6.4 km/h 7 mph /  11.3 km/h 64 % 0 in /  0.0 mm
12:27 72.7 °F /  22.6 °C 60.3 °F /  15.7 °C 30.2 in /  1021.6 hPa NNW 3 mph /  4.8 km/h 9 mph /  14.5 km/h 65 % 0 in /  0.0 mm
12:32 72.7 °F /  22.6 °C 60.6 °F /  15.9 °C 30.2 in /  1021.6 hPa East 3 mph /  4.8 km/h 9 mph /  14.5 km/h 66 % 0 in /  0.0 mm
12:37 73.2 °F /  22.9 °C 61.5 °F /  16.4 °C 30.2 in /  1021.6 hPa ENE 4 mph /  6.4 km/h 9 mph /  14.5 km/h 67 % 0 in /  0.0 mm
12:42 73.8 °F /  23.2 °C 61.3 °F /  16.3 °C 30.2 in /  1021.6 hPa NE 3 mph /  4.8 km/h 7 mph /  11.3 km/h 65 % 0 in /  0.0 mm
12:47 73.8 °F /  23.2 °C 61.3 °F /  16.3 °C 30.2 in /  1021.6 hPa ENE 3 mph /  4.8 km/h 8 mph /  12.9 km/h 65 % 0 in /  0.0 mm
12:52 73.9 °F /  23.3 °C 61.3 °F /  16.3 °C 30.2 in /  1021.6 hPa ENE 4 mph /  6.4 km/h 8 mph /  12.9 km/h 65 % 0 in /  0.0 mm
13:02 74.3 °F /  23.5 °C 60.8 °F /  16.0 °C 30.2 in /  1021.2 hPa ENE 3 mph /  4.8 km/h 10 mph /  16.1 km/h 63 % 0 in /  0.0 mm
13:07 74.5 °F /  23.6 °C 60.1 °F /  15.6 °C 30.2 in /  1021.2 hPa ENE 2 mph /  3.2 km/h 10 mph /  16.1 km/h 61 % 0 in /  0.0 mm
13:12 75 °F /  23.9 °C 62.1 °F /  16.7 °C 30.2 in /  1021.2 hPa East 4 mph /  6.4 km/h 10 mph /  16.1 km/h 64 % 0 in /  0.0 mm
13:17 75 °F /  23.9 °C 61.2 °F /  16.2 °C 30.2 in /  1021.2 hPa NE 3 mph /  4.8 km/h 9 mph /  14.5 km/h 62 % 0 in /  0.0 mm
13:22 75 °F /  23.9 °C 61.5 °F /  16.4 °C 30.2 in /  1021.2 hPa East 4 mph /  6.4 km/h 10 mph /  16.1 km/h 63 % 0 in /  0.0 mm
13:27 75.6 °F /  24.2 °C 61.7 °F /  16.5 °C 30.2 in /  1021.2 hPa ENE 3 mph /  4.8 km/h 10 mph /  16.1 km/h 62 % 0 in /  0.0 mm
13:32 75.4 °F /  24.1 °C 60.4 °F /  15.8 °C 30.2 in /  1021.2 hPa East 7 mph /  11.3 km/h 8 mph /  12.9 km/h 60 % 0 in /  0.0 mm
13:42 75 °F /  23.9 °C 60.3 °F /  15.7 °C 30.2 in /  1020.9 hPa East 5 mph /  8.0 km/h 10 mph /  16.1 km/h 60 % 0 in /  0.0 mm
13:47 75.6 °F /  24.2 °C 62.6 °F /  17.0 °C 30.2 in /  1020.9 hPa East 7 mph /  11.3 km/h 10 mph /  16.1 km/h 64 % 0 in /  0.0 mm
13:52 75.9 °F /  24.4 °C 61 °F /  16.1 °C 30.2 in /  1020.9 hPa East 2 mph /  3.2 km/h 9 mph /  14.5 km/h 60 % 0 in /  0.0 mm
14:02 76.3 °F /  24.6 °C 61.3 °F /  16.3 °C 30.2 in /  1020.9 hPa Calm   9 mph /  14.5 km/h 60 % 0 in /  0.0 mm
14:12 77.5 °F /  25.3 °C 62.1 °F /  16.7 °C 30.2 in /  1020.9 hPa ESE 4 mph /  6.4 km/h 4 mph /  6.4 km/h 59 % 0 in /  0.0 mm
14:17 78.1 °F /  25.6 °C 63.1 °F /  17.3 °C 30.1 in /  1020.5 hPa ENE 1 mph /  1.6 km/h 5 mph /  8.0 km/h 60 % 0 in /  0.0 mm
14:22 78.1 °F /  25.6 °C 62.1 °F /  16.7 °C 30.1 in /  1020.5 hPa Calm   5 mph /  8.0 km/h 58 % 0 in /  0.0 mm
14:27 77.5 °F /  25.3 °C 62.1 °F /  16.7 °C 30.1 in /  1020.5 hPa East 2 mph /  3.2 km/h 5 mph /  8.0 km/h 59 % 0 in /  0.0 mm
14:32 77.2 °F /  25.1 °C 62.6 °F /  17.0 °C 30.1 in /  1020.5 hPa ENE 6 mph /  9.7 km/h 8 mph /  12.9 km/h 61 % 0 in /  0.0 mm
14:37 76.5 °F /  24.7 °C 62.1 °F /  16.7 °C 30.1 in /  1020.5 hPa NNE 3 mph /  4.8 km/h 8 mph /  12.9 km/h 61 % 0 in /  0.0 mm
14:42 76.8 °F /  24.9 °C 63.3 °F /  17.4 °C 30.1 in /  1020.5 hPa ENE 4 mph /  6.4 km/h 7 mph /  11.3 km/h 63 % 0 in /  0.0 mm
14:47 76.6 °F /  24.8 °C 63.1 °F /  17.3 °C 30.1 in /  1020.5 hPa ENE 5 mph /  8.0 km/h 8 mph /  12.9 km/h 63 % 0 in /  0.0 mm
14:52 76.6 °F /  24.8 °C 62.2 °F /  16.8 °C 30.1 in /  1020.5 hPa NE 3 mph /  4.8 km/h 8 mph /  12.9 km/h 61 % 0 in /  0.0 mm
14:57 77.2 °F /  25.1 °C 63.1 °F /  17.3 °C 30.1 in /  1020.5 hPa SW 4 mph /  6.4 km/h 8 mph /  12.9 km/h 62 % 0 in /  0.0 mm
15:07 78.8 °F /  26.0 °C 62.8 °F /  17.1 °C 30.1 in /  1020.2 hPa ESE 1 mph /  1.6 km/h 7 mph /  11.3 km/h 58 % 0 in /  0.0 mm
15:12 79 °F /  26.1 °C 62.4 °F /  16.9 °C 30.1 in /  1020.2 hPa SSW 2 mph /  3.2 km/h 6 mph /  9.7 km/h 57 % 0 in /  0.0 mm
15:17 78.4 °F /  25.8 °C 63 °F /  17.2 °C 30.1 in /  1020.2 hPa East 4 mph /  6.4 km/h 7 mph /  11.3 km/h 59 % 0 in /  0.0 mm
15:22 79 °F /  26.1 °C 62.4 °F /  16.9 °C 30.1 in /  1020.2 hPa NNE 3 mph /  4.8 km/h 7 mph /  11.3 km/h 57 % 0 in /  0.0 mm
15:27 78.8 °F /  26.0 °C 64.2 °F /  17.9 °C 30.1 in /  1020.2 hPa SE 2 mph /  3.2 km/h 6 mph /  9.7 km/h 61 % 0 in /  0.0 mm
15:32 79.5 °F /  26.4 °C 63.5 °F /  17.5 °C 30.1 in /  1020.2 hPa East 2 mph /  3.2 km/h 6 mph /  9.7 km/h 58 % 0 in /  0.0 mm
15:37 79.3 °F /  26.3 °C 62.2 °F /  16.8 °C 30.1 in /  1019.9 hPa ENE 3 mph /  4.8 km/h 6 mph /  9.7 km/h 56 % 0 in /  0.0 mm
15:42 79.5 °F /  26.4 °C 63 °F /  17.2 °C 30.1 in /  1019.9 hPa SSW 1 mph /  1.6 km/h 6 mph /  9.7 km/h 57 % 0 in /  0.0 mm
15:47 79.2 °F /  26.2 °C 62.1 °F /  16.7 °C 30.1 in /  1019.9 hPa SSW 2 mph /  3.2 km/h 5 mph /  8.0 km/h 56 % 0 in /  0.0 mm
15:52 79.2 °F /  26.2 °C 63.1 °F /  17.3 °C 30.1 in /  1019.9 hPa SE 1 mph /  1.6 km/h 4 mph /  6.4 km/h 58 % 0 in /  0.0 mm
15:57 79 °F /  26.1 °C 61.9 °F /  16.6 °C 30.1 in /  1019.9 hPa Calm   4 mph /  6.4 km/h 56 % 0 in /  0.0 mm
16:02 79.5 °F /  26.4 °C 61.3 °F /  16.3 °C 30.1 in /  1019.9 hPa East 3 mph /  4.8 km/h 4 mph /  6.4 km/h 54 % 0 in /  0.0 mm
16:12 78.8 °F /  26.0 °C 61.3 °F /  16.3 °C 30.1 in /  1019.5 hPa East 3 mph /  4.8 km/h 5 mph /  8.0 km/h 55 % 0 in /  0.0 mm
16:17 79.3 °F /  26.3 °C 60.8 °F /  16.0 °C 30.1 in /  1019.5 hPa SE 4 mph /  6.4 km/h 5 mph /  8.0 km/h 53 % 0 in /  0.0 mm
16:22 80.2 °F /  26.8 °C 61 °F /  16.1 °C 30.1 in /  1019.5 hPa SW 5 mph /  8.0 km/h 5 mph /  8.0 km/h 52 % 0 in /  0.0 mm
16:27 79.9 °F /  26.6 °C 60.1 °F /  15.6 °C 30.1 in /  1019.5 hPa Calm   5 mph /  8.0 km/h 51 % 0 in /  0.0 mm
16:32 79.9 °F /  26.6 °C 60.6 °F /  15.9 °C 30.1 in /  1019.5 hPa West 2 mph /  3.2 km/h 5 mph /  8.0 km/h 52 % 0 in /  0.0 mm
16:42 79.7 °F /  26.5 °C 60.4 °F /  15.8 °C 30.1 in /  1019.5 hPa SSW 4 mph /  6.4 km/h 7 mph /  11.3 km/h 52 % 0 in /  0.0 mm
16:47 79 °F /  26.1 °C 60.4 °F /  15.8 °C 30.1 in /  1019.5 hPa SE 1 mph /  1.6 km/h 7 mph /  11.3 km/h 53 % 0 in /  0.0 mm
16:52 78.4 °F /  25.8 °C 61.5 °F /  16.4 °C 30.1 in /  1019.5 hPa SW 2 mph /  3.2 km/h 7 mph /  11.3 km/h 56 % 0 in /  0.0 mm
16:57 78.6 °F /  25.9 °C 61.2 °F /  16.2 °C 30.1 in /  1019.2 hPa SSW 2 mph /  3.2 km/h 5 mph /  8.0 km/h 55 % 0 in /  0.0 mm
17:02 79.2 °F /  26.2 °C 62.6 °F /  17.0 °C 30.1 in /  1019.2 hPa West 3 mph /  4.8 km/h 4 mph /  6.4 km/h 57 % 0 in /  0.0 mm
17:07 79.2 °F /  26.2 °C 61.5 °F /  16.4 °C 30.1 in /  1019.2 hPa Calm   5 mph /  8.0 km/h 55 % 0 in /  0.0 mm
17:12 79 °F /  26.1 °C 61.5 °F /  16.4 °C 30.1 in /  1019.2 hPa WNW 1 mph /  1.6 km/h 5 mph /  8.0 km/h 55 % 0 in /  0.0 mm
17:22 80.1 °F /  26.7 °C 62.4 °F /  16.9 °C 30.1 in /  1019.2 hPa Calm   5 mph /  8.0 km/h 55 % 0 in /  0.0 mm
17:32 81.1 °F /  27.3 °C 61.9 °F /  16.6 °C 30.1 in /  1019.2 hPa Calm   7 mph /  11.3 km/h 52 % 0 in /  0.0 mm
17:37 81.3 °F /  27.4 °C 62.1 °F /  16.7 °C 30.1 in /  1018.8 hPa East 2 mph /  3.2 km/h 7 mph /  11.3 km/h 52 % 0 in /  0.0 mm
17:47 80.2 °F /  26.8 °C 61.5 °F /  16.4 °C 30.1 in /  1018.8 hPa SSW 1 mph /  1.6 km/h 5 mph /  8.0 km/h 53 % 0 in /  0.0 mm
17:52 80.8 °F /  27.1 °C 59.9 °F /  15.5 °C 30.1 in /  1018.8 hPa SW 2 mph /  3.2 km/h 6 mph /  9.7 km/h 49 % 0 in /  0.0 mm
17:57 81.1 °F /  27.3 °C 61.3 °F /  16.3 °C 30.1 in /  1018.8 hPa WSW 3 mph /  4.8 km/h 6 mph /  9.7 km/h 51 % 0 in /  0.0 mm
18:02 81.3 °F /  27.4 °C 60.3 °F /  15.7 °C 30.1 in /  1018.8 hPa South 2 mph /  3.2 km/h 4 mph /  6.4 km/h 49 % 0 in /  0.0 mm
18:07 81.7 °F /  27.6 °C 61.2 °F /  16.2 °C 30.1 in /  1018.8 hPa Calm   6 mph /  9.7 km/h 50 % 0 in /  0.0 mm
18:12 81.7 °F /  27.6 °C 60.6 °F /  15.9 °C 30.1 in /  1018.8 hPa Calm   6 mph /  9.7 km/h 49 % 0 in /  0.0 mm
18:22 80.6 °F /  27.0 °C 61.3 °F /  16.3 °C 30.1 in /  1018.8 hPa Calm   3 mph /  4.8 km/h 52 % 0 in /  0.0 mm
18:32 81.3 °F /  27.4 °C 61 °F /  16.1 °C 30.1 in /  1018.5 hPa Calm   4 mph /  6.4 km/h 50 % 0 in /  0.0 mm
18:42 80.8 °F /  27.1 °C 62.1 °F /  16.7 °C 30.1 in /  1018.5 hPa East 3 mph /  4.8 km/h 4 mph /  6.4 km/h 53 % 0 in /  0.0 mm
18:47 80.2 °F /  26.8 °C 63.1 °F /  17.3 °C 30.1 in /  1018.5 hPa Calm   5 mph /  8.0 km/h 56 % 0 in /  0.0 mm
18:52 80.8 °F /  27.1 °C 61.5 °F /  16.4 °C 30.1 in /  1018.5 hPa SSE 2 mph /  3.2 km/h 5 mph /  8.0 km/h 52 % 0 in /  0.0 mm
18:57 80.4 °F /  26.9 °C 61.2 °F /  16.2 °C 30.1 in /  1018.5 hPa Calm   4 mph /  6.4 km/h 52 % 0 in /  0.0 mm
19:02 79.7 °F /  26.5 °C 61 °F /  16.1 °C 30.1 in /  1018.5 hPa East 1 mph /  1.6 km/h 4 mph /  6.4 km/h 53 % 0 in /  0.0 mm
19:12 79 °F /  26.1 °C 61.5 °F /  16.4 °C 30.1 in /  1018.5 hPa ESE 1 mph /  1.6 km/h 4 mph /  6.4 km/h 55 % 0 in /  0.0 mm
19:17 79.3 °F /  26.3 °C 62.2 °F /  16.8 °C 30.1 in /  1018.8 hPa Calm   3 mph /  4.8 km/h 56 % 0 in /  0.0 mm
19:22 79.3 °F /  26.3 °C 62.2 °F /  16.8 °C 30.1 in /  1018.8 hPa Calm   3 mph /  4.8 km/h 56 % 0 in /  0.0 mm
19:32 78.1 °F /  25.6 °C 61.5 °F /  16.4 °C 30.1 in /  1018.5 hPa Calm   1 mph /  1.6 km/h 57 % 0 in /  0.0 mm
19:42 78.6 °F /  25.9 °C 61.5 °F /  16.4 °C 30.1 in /  1018.5 hPa Calm     56 % 0 in /  0.0 mm
19:52 78.8 °F /  26.0 °C 62.8 °F /  17.1 °C 30.1 in /  1018.5 hPa Calm     58 % 0 in /  0.0 mm
19:57 79.2 °F /  26.2 °C 62.6 °F /  17.0 °C 30.1 in /  1018.5 hPa Calm     57 % 0 in /  0.0 mm
20:02 79.3 °F /  26.3 °C 62.8 °F /  17.1 °C 30.1 in /  1018.5 hPa Calm   2 mph /  3.2 km/h 57 % 0 in /  0.0 mm
20:12 80.1 °F /  26.7 °C 62.4 °F /  16.9 °C 30.1 in /  1018.5 hPa Calm   2 mph /  3.2 km/h 55 % 0 in /  0.0 mm
20:17 80.2 °F /  26.8 °C 61.5 °F /  16.4 °C 30.1 in /  1018.5 hPa Calm     53 % 0 in /  0.0 mm
20:22 80.4 °F /  26.9 °C 61.7 °F /  16.5 °C 30.1 in /  1018.5 hPa Calm     53 % 0 in /  0.0 mm
20:32 80.8 °F /  27.1 °C 61 °F /  16.1 °C 30.1 in /  1018.5 hPa Calm   2 mph /  3.2 km/h 51 % 0 in /  0.0 mm
20:42 81 °F /  27.2 °C 60.6 °F /  15.9 °C 30.1 in /  1018.5 hPa Calm   1 mph /  1.6 km/h 50 % 0 in /  0.0 mm
20:47 81.5 °F /  27.5 °C 63.3 °F /  17.4 °C 30.1 in /  1018.5 hPa Calm   1 mph /  1.6 km/h 54 % 0 in /  0.0 mm
20:52 81.7 °F /  27.6 °C 63.5 °F /  17.5 °C 30.1 in /  1018.5 hPa Calm   1 mph /  1.6 km/h 54 % 0 in /  0.0 mm
20:57 81.3 °F /  27.4 °C 63.1 °F /  17.3 °C 30.1 in /  1018.8 hPa Calm     54 % 0 in /  0.0 mm
21:02 80.2 °F /  26.8 °C 62.1 °F /  16.7 °C 30.1 in /  1018.8 hPa Calm     54 % 0 in /  0.0 mm
21:07 79.2 °F /  26.2 °C 63.1 °F /  17.3 °C 30.1 in /  1018.8 hPa Calm     58 % 0 in /  0.0 mm
21:12 78.3 °F /  25.7 °C 62.2 °F /  16.8 °C 30.1 in /  1018.8 hPa Calm     58 % 0 in /  0.0 mm
21:17 76.3 °F /  24.6 °C 62.2 °F /  16.8 °C 30.1 in /  1018.8 hPa Calm     62 % 0 in /  0.0 mm
21:22 74.7 °F /  23.7 °C 61.2 °F /  16.2 °C 30.1 in /  1018.8 hPa Calm     63 % 0 in /  0.0 mm
21:32 72.9 °F /  22.7 °C 61.3 °F /  16.3 °C 30.1 in /  1018.8 hPa Calm     67 % 0 in /  0.0 mm
21:37 72.1 °F /  22.3 °C 61 °F /  16.1 °C 30.1 in /  1018.8 hPa Calm     68 % 0 in /  0.0 mm
21:42 71.4 °F /  21.9 °C 60.8 °F /  16.0 °C 30.1 in /  1018.8 hPa Calm     69 % 0 in /  0.0 mm
21:47 70.9 °F /  21.6 °C 61 °F /  16.1 °C 30.1 in /  1018.8 hPa Calm     71 % 0 in /  0.0 mm
21:52 70.2 °F /  21.2 °C 60.6 °F /  15.9 °C 30.1 in /  1018.8 hPa Calm     72 % 0 in /  0.0 mm
21:57 69.6 °F /  20.9 °C 61 °F /  16.1 °C 30.1 in /  1018.8 hPa Calm     74 % 0 in /  0.0 mm
22:02 69.3 °F /  20.7 °C 61.3 °F /  16.3 °C 30.1 in /  1018.8 hPa Calm     76 % 0 in /  0.0 mm
22:12 68.7 °F /  20.4 °C 60.8 °F /  16.0 °C 30.1 in /  1019.2 hPa Calm     76 % 0 in /  0.0 mm
22:17 68.5 °F /  20.3 °C 61 °F /  16.1 °C 30.1 in /  1019.2 hPa Calm     77 % 0 in /  0.0 mm
22:22 68.4 °F /  20.2 °C 60.8 °F /  16.0 °C 30.1 in /  1019.2 hPa Calm     77 % 0 in /  0.0 mm
22:27 68 °F /  20.0 °C 60.4 °F /  15.8 °C 30.1 in /  1019.2 hPa Calm     77 % 0 in /  0.0 mm
22:32 68 °F /  20.0 °C 60.4 °F /  15.8 °C 30.1 in /  1019.2 hPa Calm     77 % 0 in /  0.0 mm
22:42 67.8 °F /  19.9 °C 60.6 °F /  15.9 °C 30.1 in /  1019.5 hPa Calm     78 % 0 in /  0.0 mm
22:47 67.6 °F /  19.8 °C 61 °F /  16.1 °C 30.1 in /  1019.5 hPa Calm     79 % 0 in /  0.0 mm
22:52 67.3 °F /  19.6 °C 61 °F /  16.1 °C 30.1 in /  1019.5 hPa Calm     80 % 0 in /  0.0 mm
22:57 66.9 °F /  19.4 °C 60.6 °F /  15.9 °C 30.1 in /  1019.5 hPa Calm     80 % 0 in /  0.0 mm
23:02 66.6 °F /  19.2 °C 60.3 °F /  15.7 °C 30.1 in /  1019.5 hPa Calm     80 % 0 in /  0.0 mm
23:07 66.6 °F /  19.2 °C 60.3 °F /  15.7 °C 30.1 in /  1019.5 hPa Calm     80 % 0 in /  0.0 mm
23:12 66.6 °F /  19.2 °C 60.3 °F /  15.7 °C 30.1 in /  1019.5 hPa Calm     80 % 0 in /  0.0 mm
23:17 66.6 °F /  19.2 °C 60.3 °F /  15.7 °C 30.1 in /  1019.2 hPa Calm     80 % 0 in /  0.0 mm
23:22 66.2 °F /  19.0 °C 60.3 °F /  15.7 °C 30.1 in /  1019.2 hPa Calm     81 % 0 in /  0.0 mm
23:27 65.7 °F /  18.7 °C 60.1 °F /  15.6 °C 30.1 in /  1019.2 hPa WNW 1 mph /  1.6 km/h 1 mph /  1.6 km/h 82 % 0 in /  0.0 mm
23:32 65.5 °F /  18.6 °C 59.9 °F /  15.5 °C 30.1 in /  1019.2 hPa Calm   2 mph /  3.2 km/h 82 % 0 in /  0.0 mm
23:42 65.7 °F /  18.7 °C 60.1 °F /  15.6 °C 30.1 in /  1019.2 hPa North 2 mph /  3.2 km/h 2 mph /  3.2 km/h 82 % 0 in /  0.0 mm
23:47 65.7 °F /  18.7 °C 60.1 °F /  15.6 °C 30.1 in /  1019.2 hPa Calm   2 mph /  3.2 km/h 82 % 0 in /  0.0 mm
23:52 65.5 °F /  18.6 °C 59.9 °F /  15.5 °C 30.1 in /  1019.2 hPa North 1 mph /  1.6 km/h 2 mph /  3.2 km/h 82 % 0 in /  0.0 mm
Meteo18
Compliments of Weather Underground - 4 mb

Script developed by  Jim McMurry - jmcmurry@mwt.net Adapted for the template by  Wim van der Kuil - Leuven-Template.eu

You find our weather info also at:

European Weather Network

Weather Underground

Equipment we use:

Weather-station
Davis Vue

Weather-program
Meteohub

Weather-server
Raspberry PI 2 B+

Provider
1 and 1

Davis Vue

Meteohub

Raspberry PI 2 B+

1 and 1